Time;durP1;ratioP1;P1;durP2;ratioP2;P2;SDS_P1;SDS_P2;PMS_P1;PMS_P2;Temp;Humidity;BMP_temperature;BMP_pressure;BME280_temperature;BME280_humidity;BME280_pressure;Samples;Min_cycle;Max_cycle;Signal;HPM_P1;HPM_P2
2022/05/15 00:02:00;;;;;;;9.20;2.83;;;12.60;99.90;;;;;;5030938;28;20212;-58
2022/05/15 00:04:26;;;;;;;9.33;2.73;;;12.60;99.90;;;;;;5030920;28;20205;-58
2022/05/15 00:06:52;;;;;;;16.10;3.50;;;12.60;99.90;;;;;;5030894;28;20239;-58
2022/05/15 00:09:17;;;;;;;11.93;2.73;;;12.60;99.90;;;;;;5031100;28;20192;-58
2022/05/15 00:11:43;;;;;;;10.20;2.50;;;12.60;99.90;;;;;;5030920;28;20166;-58
2022/05/15 00:14:09;;;;;;;6.77;2.40;;;12.50;99.90;;;;;;5030649;28;20184;-58
2022/05/15 00:16:35;;;;;;;12.40;2.87;;;12.50;99.90;;;;;;5030831;28;20170;-58
2022/05/15 00:19:01;;;;;;;12.80;2.90;;;12.40;99.90;;;;;;5030947;28;20180;-58
2022/05/15 00:21:27;;;;;;;9.33;2.60;;;12.40;99.90;;;;;;5030802;28;20795;-58
2022/05/15 00:23:53;;;;;;;8.00;2.20;;;12.40;99.90;;;;;;5030775;28;20214;-59
2022/05/15 00:26:18;;;;;;;11.57;2.20;;;12.30;99.90;;;;;;5030770;28;20648;-58
2022/05/15 00:28:44;;;;;;;5.50;1.77;;;12.30;99.90;;;;;;5030690;28;20178;-57
2022/05/15 00:31:10;;;;;;;9.27;2.20;;;12.20;99.90;;;;;;5030803;28;20227;-57
2022/05/15 00:33:36;;;;;;;9.93;2.17;;;12.20;99.90;;;;;;5030774;28;20178;-58
2022/05/15 00:36:03;;;;;;;5.40;1.73;;;12.00;99.90;;;;;;5030770;28;20185;-58
2022/05/15 00:38:28;;;;;;;6.33;1.70;;;11.80;99.90;;;;;;5031850;28;20220;-58
2022/05/15 00:40:54;;;;;;;5.77;1.93;;;11.80;99.90;;;;;;5034436;28;20176;-58
2022/05/15 00:43:38;;;;;;;9.17;2.30;;;11.70;99.90;;;;;;5034351;28;20244;-58
2022/05/15 00:46:06;;;;;;;10.73;2.30;;;11.70;99.90;;;;;;5034412;28;20221;-57
2022/05/15 00:48:32;;;;;;;10.17;2.90;;;11.80;99.90;;;;;;5034449;28;20185;-57
2022/05/15 00:51:03;;;;;;;9.20;2.77;;;11.90;99.90;;;;;;5033150;28;20176;-57
2022/05/15 00:53:30;;;;;;;16.77;3.00;;;12.00;99.90;;;;;;5034218;28;20272;-57
2022/05/15 00:55:56;;;;;;;6.00;2.83;;;12.00;99.90;;;;;;5034169;28;20162;-57
2022/05/15 00:58:31;;;;;;;9.17;2.60;;;12.00;99.90;;;;;;5034163;28;20596;-58
2022/05/15 01:00:57;;;;;;;9.67;3.03;;;12.00;99.90;;;;;;5034200;28;20162;-57
2022/05/15 01:03:23;;;;;;;11.03;3.07;;;11.90;99.90;;;;;;5034185;28;20245;-59
2022/05/15 01:05:52;;;;;;;9.97;3.07;;;11.80;99.90;;;;;;5034171;28;20205;-58
2022/05/15 01:08:18;;;;;;;7.33;2.60;;;12.00;99.90;;;;;;5034548;28;20201;-58
2022/05/15 01:10:50;;;;;;;8.20;2.00;;;11.90;99.90;;;;;;5033879;28;20185;-59
2022/05/15 01:13:17;;;;;;;5.10;2.37;;;11.80;99.90;;;;;;5031670;28;20208;-59
2022/05/15 01:15:44;;;;;;;7.27;2.30;;;11.80;99.90;;;;;;5033845;28;20197;-58
2022/05/15 01:18:10;;;;;;;6.10;2.10;;;11.70;99.90;;;;;;5034099;28;20185;-58
2022/05/15 01:20:38;;;;;;;8.93;1.53;;;11.60;99.90;;;;;;5033725;28;20657;-58
2022/05/15 01:23:03;;;;;;;6.30;2.10;;;11.60;99.90;;;;;;5033710;28;20215;-58
2022/05/15 01:25:32;;;;;;;6.03;1.90;;;11.70;99.90;;;;;;5033741;28;20634;-58
2022/05/15 01:28:16;;;;;;;9.10;2.17;;;11.70;99.90;;;;;;5033820;28;20247;-58
2022/05/15 01:30:46;;;;;;;7.77;2.03;;;11.70;99.90;;;;;;5033508;28;20261;-58
2022/05/15 01:33:11;;;;;;;5.27;2.20;;;11.70;99.90;;;;;;5033530;28;20667;-58
2022/05/15 01:35:38;;;;;;;7.73;2.00;;;11.80;99.90;;;;;;5033409;28;20162;-58
2022/05/15 01:38:04;;;;;;;3.43;1.60;;;11.80;99.90;;;;;;5033536;28;20189;-58
2022/05/15 01:40:30;;;;;;;7.10;1.87;;;11.60;99.90;;;;;;5033456;28;20201;-58
2022/05/15 01:42:56;;;;;;;7.27;2.27;;;11.60;99.90;;;;;;5033188;28;20218;-58
2022/05/15 01:45:22;;;;;;;7.20;2.07;;;11.70;99.90;;;;;;5033103;28;20217;-58
2022/05/15 01:47:49;;;;;;;4.77;1.53;;;11.80;99.90;;;;;;5033171;28;20589;-58
2022/05/15 01:50:16;;;;;;;5.70;1.97;;;11.80;99.90;;;;;;5032873;28;20191;-58
2022/05/15 01:52:42;;;;;;;4.60;2.00;;;11.90;99.90;;;;;;5033356;28;20194;-58
2022/05/15 01:55:08;;;;;;;7.83;2.20;;;11.80;99.90;;;;;;5033198;28;20174;-58
2022/05/15 01:57:34;;;;;;;8.97;2.47;;;11.70;99.90;;;;;;5033180;28;20699;-58
2022/05/15 02:00:00;;;;;;;5.13;1.80;;;11.70;99.90;;;;;;5032939;28;20178;-59
2022/05/15 02:02:25;;;;;;;5.80;1.70;;;11.50;99.90;;;;;;5032798;28;20259;-58
2022/05/15 02:04:51;;;;;;;6.70;1.87;;;11.40;99.90;;;;;;5032870;28;20185;-58
2022/05/15 02:07:17;;;;;;;14.70;2.20;;;11.50;99.90;;;;;;5032860;28;20786;-58
2022/05/15 02:09:43;;;;;;;7.93;1.83;;;11.30;99.90;;;;;;5032894;28;20633;-58
2022/05/15 02:12:10;;;;;;;8.40;2.40;;;11.40;99.90;;;;;;5032945;28;20178;-58
2022/05/15 02:14:35;;;;;;;6.20;2.40;;;11.40;99.90;;;;;;5032694;28;20597;-58
2022/05/15 02:17:01;;;;;;;7.77;3.13;;;11.30;99.90;;;;;;5031335;28;20193;-58
2022/05/15 02:19:26;;;;;;;7.93;2.47;;;11.30;99.90;;;;;;5032629;28;20176;-58
2022/05/15 02:21:52;;;;;;;7.03;2.53;;;11.30;99.90;;;;;;5032820;28;20182;-58
2022/05/15 02:24:18;;;;;;;7.03;2.63;;;11.30;99.90;;;;;;5047845;28;20236;-58
2022/05/15 02:26:44;;;;;;;8.73;2.77;;;11.20;99.90;;;;;;5032637;28;20652;-58
2022/05/15 02:29:10;;;;;;;6.23;2.47;;;11.30;99.90;;;;;;5032481;28;20177;-58
2022/05/15 02:31:36;;;;;;;6.63;2.40;;;11.30;99.90;;;;;;5032251;28;20243;-58
2022/05/15 02:34:02;;;;;;;5.67;2.20;;;11.10;99.90;;;;;;5032427;28;20640;-58
2022/05/15 02:36:29;;;;;;;8.33;2.30;;;11.10;99.90;;;;;;5032356;28;20230;-58
2022/05/15 02:38:55;;;;;;;7.93;2.03;;;11.10;99.90;;;;;;5032351;28;20174;-58
2022/05/15 02:41:20;;;;;;;4.43;2.07;;;11.20;99.90;;;;;;5032217;28;20188;-58
2022/05/15 02:43:46;;;;;;;8.47;2.00;;;11.40;99.90;;;;;;5030881;28;20574;-58
2022/05/15 02:46:12;;;;;;;8.20;2.60;;;11.40;99.90;;;;;;5032026;28;20649;-58
2022/05/15 02:51:22;;;;;;;4.07;1.73;;;11.30;99.90;;;;;;5032102;28;20284;-58
2022/05/15 02:53:48;;;;;;;4.10;1.83;;;11.30;99.90;;;;;;5032067;28;20236;-58
2022/05/15 02:56:23;;;;;;;4.60;1.63;;;11.30;99.90;;;;;;5031969;28;20178;-58
2022/05/15 02:58:49;;;;;;;7.33;2.00;;;11.30;99.90;;;;;;5031929;28;20724;-58
2022/05/15 03:01:15;;;;;;;3.83;1.50;;;11.30;99.90;;;;;;5031602;28;20236;-58
2022/05/15 03:03:42;;;;;;;8.80;2.03;;;11.30;99.90;;;;;;5031275;28;20217;-58
2022/05/15 03:06:08;;;;;;;4.50;1.67;;;11.40;99.90;;;;;;5031863;28;20651;-58
2022/05/15 03:08:37;;;;;;;8.13;1.80;;;11.50;99.90;;;;;;5031724;28;20197;-58
2022/05/15 03:11:03;;;;;;;6.10;2.00;;;11.50;99.90;;;;;;5031497;28;20222;-58
2022/05/15 03:13:28;;;;;;;4.90;1.77;;;11.60;99.90;;;;;;5031624;28;20177;-58
2022/05/15 03:15:54;;;;;;;5.33;1.87;;;11.60;99.90;;;;;;5031689;28;20174;-57
2022/05/15 03:18:20;;;;;;;3.93;1.90;;;11.60;99.90;;;;;;5029508;28;20189;-57
2022/05/15 03:20:46;;;;;;;5.90;1.87;;;11.60;99.90;;;;;;5031634;28;20173;-57
2022/05/15 03:23:11;;;;;;;6.60;1.63;;;11.60;99.90;;;;;;5031302;28;20232;-58
2022/05/15 03:25:37;;;;;;;3.47;1.67;;;11.60;99.90;;;;;;5030183;28;20648;-58
2022/05/15 03:28:09;;;;;;;5.63;1.70;;;11.60;99.90;;;;;;5031309;28;20667;-58
2022/05/15 03:30:35;;;;;;;6.90;1.90;;;11.60;99.90;;;;;;5031469;28;20174;-57
2022/05/15 03:33:01;;;;;;;7.60;2.10;;;11.60;99.90;;;;;;5031515;28;20200;-58
2022/05/15 03:35:27;;;;;;;4.47;2.00;;;11.50;99.90;;;;;;5031118;28;20668;-58
2022/05/15 03:37:52;;;;;;;6.10;2.40;;;11.50;99.90;;;;;;5031264;28;20245;-58
2022/05/15 03:40:18;;;;;;;3.33;1.63;;;11.40;99.90;;;;;;5031206;28;20204;-57
2022/05/15 03:42:44;;;;;;;3.50;2.23;;;11.40;99.90;;;;;;5030996;28;20255;-57
2022/05/15 03:45:10;;;;;;;5.10;2.13;;;11.40;99.90;;;;;;5031030;28;20676;-57
2022/05/15 03:47:36;;;;;;;5.20;2.13;;;11.50;99.90;;;;;;5031148;28;20169;-57
2022/05/15 03:50:07;;;;;;;4.77;2.47;;;11.50;99.90;;;;;;5031054;28;20660;-58
2022/05/15 03:52:34;;;;;;;3.63;2.07;;;11.60;99.90;;;;;;5031030;28;20174;-58
2022/05/15 03:54:59;;;;;;;7.57;2.40;;;11.60;99.90;;;;;;5030903;28;20245;-58
2022/05/15 03:57:25;;;;;;;5.40;2.43;;;11.60;99.90;;;;;;5031058;28;20257;-57
2022/05/15 03:59:51;;;;;;;4.30;2.63;;;11.70;99.90;;;;;;5030936;28;20269;-57
2022/05/15 04:02:16;;;;;;;11.03;3.03;;;11.80;99.90;;;;;;5030969;28;20177;-58
2022/05/15 04:04:42;;;;;;;6.07;3.00;;;11.70;99.90;;;;;;5031005;28;20296;-57
2022/05/15 04:07:08;;;;;;;3.30;1.93;;;11.80;99.90;;;;;;5030854;28;20185;-58
2022/05/15 04:09:34;;;;;;;5.10;2.57;;;11.80;99.90;;;;;;5030879;28;20173;-58
2022/05/15 04:12:00;;;;;;;5.33;2.90;;;11.80;99.90;;;;;;5030859;28;20198;-57
2022/05/15 04:14:26;;;;;;;7.10;2.40;;;11.80;99.90;;;;;;5033696;28;20166;-57
2022/05/15 04:16:52;;;;;;;6.13;2.87;;;11.80;99.90;;;;;;5034895;28;20658;-57
2022/05/15 04:19:17;;;;;;;8.87;2.50;;;11.90;99.90;;;;;;5034958;28;20226;-58
2022/05/15 04:21:43;;;;;;;8.23;2.70;;;11.80;99.90;;;;;;5034828;28;20637;-57
2022/05/15 04:24:14;;;;;;;5.53;2.50;;;11.90;99.90;;;;;;5034724;28;20205;-58
2022/05/15 04:26:41;;;;;;;9.87;2.83;;;11.80;99.90;;;;;;5034722;28;20170;-58
2022/05/15 04:29:07;;;;;;;7.47;2.63;;;11.70;99.90;;;;;;5034790;28;20166;-58
2022/05/15 04:31:34;;;;;;;9.60;2.83;;;11.80;99.90;;;;;;5034664;28;20178;-57
2022/05/15 04:34:00;;;;;;;4.33;2.30;;;11.80;99.90;;;;;;5034651;28;20189;-57
2022/05/15 04:36:26;;;;;;;7.80;2.70;;;11.80;99.90;;;;;;5033154;28;20553;-57
2022/05/15 04:38:53;;;;;;;6.20;2.60;;;11.80;99.90;;;;;;5034333;28;20177;-58
2022/05/15 04:41:19;;;;;;;8.07;3.10;;;11.80;99.90;;;;;;5034528;28;20174;-58
2022/05/15 04:43:44;;;;;;;10.23;2.92;;;11.90;99.90;;;;;;5034227;28;20571;-58
2022/05/15 04:46:10;;;;;;;11.68;3.00;;;11.90;99.90;;;;;;5034277;28;20233;-58
2022/05/15 04:48:39;;;;;;;7.85;2.65;;;11.90;99.90;;;;;;5034151;28;20685;-58
2022/05/15 04:51:05;;;;;;;9.33;3.07;;;11.80;99.90;;;;;;5034093;28;20667;-58
2022/05/15 04:53:30;;;;;;;11.77;3.20;;;11.90;99.90;;;;;;5034338;28;20257;-58
2022/05/15 04:55:57;;;;;;;13.35;3.55;;;12.00;99.90;;;;;;5034253;28;20840;-58
2022/05/15 04:58:23;;;;;;;11.13;3.22;;;12.00;99.90;;;;;;5034039;28;20209;-58
2022/05/15 05:00:49;;;;;;;6.50;3.20;;;12.00;99.90;;;;;;5034044;28;20181;-58
2022/05/15 05:03:15;;;;;;;7.13;3.50;;;12.00;99.90;;;;;;5033886;28;20292;-58
2022/05/15 05:05:41;;;;;;;10.37;3.30;;;12.00;99.90;;;;;;5033923;28;20264;-58
2022/05/15 05:08:09;;;;;;;9.53;3.43;;;12.10;99.90;;;;;;5034076;28;20267;-58
2022/05/15 05:10:35;;;;;;;8.07;3.05;;;11.80;99.90;;;;;;5034042;28;20174;-57
2022/05/15 05:13:01;;;;;;;9.93;3.80;;;12.10;99.90;;;;;;5033943;28;20170;-57
2022/05/15 05:15:27;;;;;;;9.25;3.47;;;12.20;99.90;;;;;;5033946;28;20178;-58
2022/05/15 05:17:52;;;;;;;8.52;3.33;;;12.20;99.90;;;;;;5033805;28;20537;-59
2022/05/15 05:20:18;;;;;;;7.65;3.35;;;12.20;99.90;;;;;;5033746;28;20541;-57
2022/05/15 05:22:44;;;;;;;11.32;3.78;;;12.30;99.90;;;;;;5033664;28;20212;-58
2022/05/15 05:25:10;;;;;;;8.13;3.90;;;12.40;99.90;;;;;;5032634;28;20177;-57
2022/05/15 05:27:38;;;;;;;10.60;3.67;;;12.40;99.90;;;;;;5033661;28;20174;-58
2022/05/15 05:30:06;;;;;;;10.80;3.70;;;12.40;99.90;;;;;;5033687;28;20178;-58
2022/05/15 05:32:32;;;;;;;11.38;3.85;;;12.40;99.90;;;;;;5033368;28;20174;-58
2022/05/15 05:34:58;;;;;;;14.15;4.45;;;12.40;99.90;;;;;;5033300;28;20174;-57
2022/05/15 05:37:23;;;;;;;8.05;3.90;;;12.40;99.90;;;;;;5033242;28;20178;-58
2022/05/15 05:39:50;;;;;;;9.93;3.97;;;12.50;99.90;;;;;;5033297;28;20166;-58
2022/05/15 05:42:16;;;;;;;11.48;4.20;;;12.60;99.90;;;;;;5033266;28;20260;-57
2022/05/15 05:44:41;;;;;;;12.77;4.18;;;12.70;99.90;;;;;;5033110;28;20281;-58
2022/05/15 05:47:07;;;;;;;10.55;4.35;;;12.80;99.90;;;;;;5032992;28;20232;-58
2022/05/15 05:49:33;;;;;;;10.38;4.10;;;12.90;99.90;;;;;;5031063;28;20200;-58
2022/05/15 05:51:59;;;;;;;8.27;4.10;;;12.90;99.90;;;;;;5032820;28;20625;-59
2022/05/15 05:54:25;;;;;;;15.18;4.25;;;12.90;99.90;;;;;;5033016;28;20178;-59
2022/05/15 05:56:50;;;;;;;15.48;3.92;;;13.00;99.90;;;;;;5032850;28;20174;-59
2022/05/15 05:59:16;;;;;;;11.38;4.15;;;13.00;99.90;;;;;;5033091;28;20182;-59
2022/05/15 06:01:42;;;;;;;12.90;4.13;;;13.10;99.90;;;;;;5033027;28;20672;-59
2022/05/15 06:06:52;;;;;;;11.00;4.70;;;13.30;99.90;;;;;;5032852;28;20184;-59
2022/05/15 06:09:17;;;;;;;14.18;4.63;;;13.30;99.90;;;;;;5031547;28;20174;-59
2022/05/15 06:11:43;;;;;;;14.52;4.88;;;13.40;99.90;;;;;;5032958;28;20170;-62
2022/05/15 06:14:09;;;;;;;15.23;4.60;;;13.50;99.90;;;;;;5032927;28;20544;-59
2022/05/15 06:16:34;;;;;;;16.05;4.40;;;13.60;99.90;;;;;;5032710;28;20194;-59
2022/05/15 06:19:00;;;;;;;11.93;4.68;;;13.60;99.90;;;;;;5032850;28;20641;-59
2022/05/15 06:21:26;;;;;;;18.05;5.10;;;13.70;99.90;;;;;;5032718;28;20257;-59
2022/05/15 06:23:52;;;;;;;14.50;4.65;;;13.70;99.90;;;;;;5032648;28;20218;-59
2022/05/15 06:26:17;;;;;;;14.88;4.40;;;13.80;99.90;;;;;;5032657;28;20198;-59
2022/05/15 06:28:43;;;;;;;16.88;4.78;;;13.90;99.90;;;;;;5032634;28;20186;-59
2022/05/15 06:31:09;;;;;;;7.75;4.05;;;14.00;99.90;;;;;;5032341;28;20528;-56
2022/05/15 06:33:34;;;;;;;12.27;4.70;;;14.10;99.90;;;;;;5032418;28;20252;-59
2022/05/15 06:36:00;;;;;;;18.00;5.10;;;14.20;99.90;;;;;;5032369;28;20169;-59
2022/05/15 06:38:27;;;;;;;10.98;4.50;;;14.40;99.90;;;;;;5032323;28;20170;-59
2022/05/15 06:40:52;;;;;;;11.70;5.18;;;14.50;99.90;;;;;;5032222;28;20174;-56
2022/05/15 06:43:18;;;;;;;14.55;5.07;;;14.50;99.90;;;;;;5032029;28;20209;-63
2022/05/15 06:45:44;;;;;;;13.30;4.80;;;14.60;99.90;;;;;;5031833;28;20533;-56
2022/05/15 06:48:10;;;;;;;16.50;4.70;;;14.60;99.90;;;;;;5032076;28;20181;-56
2022/05/15 06:50:35;;;;;;;10.38;4.82;;;14.70;99.90;;;;;;5032032;28;20235;-57
2022/05/15 06:53:02;;;;;;;17.77;5.13;;;14.60;99.90;;;;;;5031899;28;20178;-57
2022/05/15 06:55:28;;;;;;;12.18;4.43;;;14.70;99.90;;;;;;5031807;28;20862;-56
2022/05/15 06:57:53;;;;;;;10.55;4.57;;;14.80;99.90;;;;;;5031767;28;20182;-56
2022/05/15 07:00:28;;;;;;;16.27;5.15;;;14.80;99.90;;;;;;5031778;28;20655;-57
2022/05/15 07:02:53;;;;;;;12.25;4.97;;;14.70;99.90;;;;;;5031921;28;20205;-59
2022/05/15 07:05:23;;;;;;;12.10;4.82;;;14.80;99.90;;;;;;5031618;28;20169;-58
2022/05/15 07:07:51;;;;;;;14.15;5.03;;;14.90;99.90;;;;;;5031708;28;20166;-57
2022/05/15 07:10:17;;;;;;;15.27;6.03;;;14.90;99.90;;;;;;5032035;28;20181;-56
2022/05/15 07:12:43;;;;;;;16.20;5.47;;;14.90;99.90;;;;;;5031465;28;20204;-57
2022/05/15 07:15:09;;;;;;;15.75;5.07;;;14.90;99.90;;;;;;5031614;28;20688;-56
2022/05/15 07:17:35;;;;;;;14.35;5.15;;;15.00;99.90;;;;;;5031380;28;20632;-56
2022/05/15 07:20:03;;;;;;;15.32;5.18;;;14.90;99.90;;;;;;5031435;28;20182;-59
2022/05/15 07:22:29;;;;;;;15.95;5.53;;;14.80;99.90;;;;;;5031320;28;20177;-59
2022/05/15 07:24:55;;;;;;;10.13;4.90;;;14.80;99.90;;;;;;5031372;28;20196;-59
2022/05/15 07:27:20;;;;;;;12.07;5.13;;;14.90;99.90;;;;;;5031300;28;20211;-59
2022/05/15 07:29:46;;;;;;;13.75;5.00;;;14.90;99.90;;;;;;5031665;28;20648;-59
2022/05/15 07:32:12;;;;;;;14.63;6.00;;;15.00;99.90;;;;;;5031487;28;20676;-56
2022/05/15 07:34:39;;;;;;;17.63;4.80;;;15.10;99.90;;;;;;5031286;28;20174;-56
2022/05/15 07:37:05;;;;;;;14.68;5.50;;;15.20;99.90;;;;;;5031402;28;20249;-58
2022/05/15 07:39:31;;;;;;;12.90;5.03;;;15.20;99.90;;;;;;5031094;28;20213;-57
2022/05/15 07:41:57;;;;;;;12.82;4.90;;;15.30;99.90;;;;;;5031103;28;20598;-58
2022/05/15 07:44:23;;;;;;;12.50;4.60;;;15.50;99.90;;;;;;5031102;28;20267;-57
2022/05/15 07:46:48;;;;;;;15.35;5.30;;;15.60;99.90;;;;;;5030982;28;20711;-57
2022/05/15 07:49:15;;;;;;;13.45;4.80;;;15.60;99.90;;;;;;5030635;28;20178;-58
2022/05/15 07:51:44;;;;;;;14.30;4.72;;;15.70;99.90;;;;;;5031327;28;20236;-58
2022/05/15 07:54:15;;;;;;;13.63;5.07;;;15.80;99.90;;;;;;5031042;28;20170;-58
2022/05/15 07:56:41;;;;;;;19.33;5.00;;;15.80;99.90;;;;;;5028766;28;20656;-57
2022/05/15 07:59:07;;;;;;;20.23;5.13;;;16.00;99.90;;;;;;5030795;28;20173;-58
2022/05/15 08:01:33;;;;;;;15.40;5.05;;;16.00;99.90;;;;;;5031167;28;20184;-58
2022/05/15 08:03:58;;;;;;;12.88;5.22;;;16.10;99.90;;;;;;5030912;28;20209;-58
2022/05/15 08:09:09;;;;;;;14.73;5.25;;;16.40;99.90;;;;;;5030786;28;20188;-59
2022/05/15 08:11:36;;;;;;;19.42;4.68;;;16.60;99.90;;;;;;5030974;28;20245;-58
2022/05/15 08:14:04;;;;;;;13.77;5.18;;;16.50;99.90;;;;;;5030882;28;20181;-58
2022/05/15 08:16:31;;;;;;;18.77;4.80;;;16.90;99.90;;;;;;5030946;28;20178;-58
2022/05/15 08:24:27;;;;;;;11.50;4.00;;;18.00;99.90;;;;;;5030618;28;20217;-58
2022/05/15 08:26:53;;;;;;;10.65;4.38;;;18.20;99.90;;;;;;5030686;28;20166;-58
2022/05/15 08:29:19;;;;;;;12.93;4.07;;;18.00;99.90;;;;;;5030880;28;20209;-58
2022/05/15 08:31:45;;;;;;;10.40;4.20;;;17.70;99.90;;;;;;5030609;28;20186;-58
2022/05/15 08:34:12;;;;;;;13.20;3.95;;;17.60;99.90;;;;;;5030594;28;20181;-58
2022/05/15 08:36:41;;;;;;;12.75;3.53;;;17.60;99.90;;;;;;5031027;28;20257;-58
2022/05/15 08:39:08;;;;;;;13.27;4.07;;;17.70;99.90;;;;;;5030579;28;20575;-58
2022/05/15 08:41:43;;;;;;;10.85;3.72;;;18.10;99.90;;;;;;5030513;28;20648;-58
2022/05/15 08:44:18;;;;;;;13.73;3.70;;;18.00;99.90;;;;;;5030462;28;20244;-58
2022/05/15 08:46:47;;;;;;;13.70;4.05;;;18.10;99.90;;;;;;5030423;28;20232;-58
2022/05/15 08:49:30;;;;;;;12.88;3.70;;;18.10;99.90;;;;;;5030635;28;20177;-58
2022/05/15 08:52:23;;;;;;;14.50;4.00;;;18.20;99.90;;;;;;5030470;28;20169;-58
2022/05/15 08:54:57;;;;;;;9.80;3.63;;;17.70;99.90;;;;;;5030495;28;20166;-58
2022/05/15 08:57:37;;;;;;;12.90;3.45;;;17.50;99.90;;;;;;5030737;28;20197;-58
2022/05/15 09:00:10;;;;;;;12.68;3.97;;;17.20;99.90;;;;;;5030912;28;20165;-58
2022/05/15 09:02:38;;;;;;;11.77;4.03;;;17.00;99.90;;;;;;5048818;28;20224;-58
2022/05/15 09:05:04;;;;;;;12.25;3.90;;;17.10;99.90;;;;;;5034079;28;20706;-58
2022/05/15 09:07:48;;;;;;;15.90;4.05;;;17.10;99.90;;;;;;5034134;28;20170;-58
2022/05/15 09:10:28;;;;;;;12.98;3.70;;;17.00;99.90;;;;;;5033997;28;20189;-58
2022/05/15 09:13:04;;;;;;;12.75;4.30;;;17.10;99.90;;;;;;5032553;28;20636;-58
2022/05/15 09:15:31;;;;;;;8.65;3.50;;;17.40;99.90;;;;;;5033909;28;20668;-58
2022/05/15 09:18:02;;;;;;;10.23;3.63;;;17.60;99.90;;;;;;5033760;28;20193;-58
2022/05/15 09:20:32;;;;;;;9.55;3.70;;;17.70;99.90;;;;;;5033979;28;20183;-58
2022/05/15 09:23:01;;;;;;;16.90;3.85;;;17.60;99.90;;;;;;5033610;28;20544;-57
2022/05/15 09:25:33;;;;;;;9.30;3.88;;;17.60;99.90;;;;;;5032366;28;20201;-57
2022/05/15 09:28:10;;;;;;;12.38;3.72;;;17.40;99.90;;;;;;5033716;28;20177;-57
2022/05/15 09:30:42;;;;;;;11.95;4.00;;;17.40;99.90;;;;;;5033584;28;20763;-57
2022/05/15 09:33:23;;;;;;;14.55;4.15;;;17.40;99.90;;;;;;5033666;28;20253;-57
2022/05/15 09:35:48;;;;;;;11.38;3.58;;;17.30;99.90;;;;;;5033506;28;20646;-57
2022/05/15 09:38:29;;;;;;;11.27;3.72;;;17.40;99.90;;;;;;5033451;28;20184;-57
2022/05/15 09:44:01;;;;;;;10.63;3.65;;;18.00;99.90;;;;;;5033569;28;20953;-57
2022/05/15 09:46:28;;;;;;;11.27;3.78;;;18.60;99.90;;;;;;5033175;28;20218;-57
2022/05/15 09:49:24;;;;;;;10.35;3.60;;;18.80;99.90;;;;;;5033286;28;20173;-58
2022/05/15 09:51:52;;;;;;;12.57;3.58;;;19.20;99.90;;;;;;5032646;28;20227;-57
2022/05/15 09:54:49;;;;;;;11.10;3.50;;;19.20;99.90;;;;;;5033114;28;20166;-57
2022/05/15 09:57:25;;;;;;;12.90;3.70;;;19.30;99.90;;;;;;5028601;28;20316;-57
2022/05/15 10:00:08;;;;;;;12.43;3.45;;;19.80;99.90;;;;;;5030813;28;20189;-57
2022/05/15 10:02:44;;;;;;;11.27;3.60;;;19.70;99.90;;;;;;5032794;28;20260;-57
2022/05/15 10:05:21;;;;;;;8.85;2.97;;;19.80;99.90;;;;;;5032898;28;20235;-57
2022/05/15 10:08:02;;;;;;;14.15;3.88;;;20.00;99.90;;;;;;5012874;28;20216;-56
2022/05/15 10:10:41;;;;;;;8.07;3.40;;;20.00;99.90;;;;;;5012906;28;20641;-56
2022/05/15 10:13:12;;;;;;;9.32;3.83;;;19.70;99.90;;;;;;5012717;28;20181;-57
2022/05/15 10:15:44;;;;;;;11.75;3.78;;;19.40;99.90;;;;;;5012906;28;20257;-57
2022/05/15 10:18:25;;;;;;;11.77;4.30;;;19.30;99.90;;;;;;5019125;28;20746;-58
2022/05/15 10:20:53;;;;;;;10.48;3.80;;;18.90;99.90;;;;;;5032590;28;20178;-57
2022/05/15 10:23:27;;;;;;;13.65;3.65;;;18.90;99.90;;;;;;5032312;28;20225;-57
2022/05/15 10:26:16;;;;;;;11.68;4.00;;;18.60;99.90;;;;;;5032507;28;20276;-57
2022/05/15 10:28:52;;;;;;;17.30;3.92;;;18.60;99.90;;;;;;5032324;28;20178;-57
2022/05/15 10:31:31;;;;;;;10.75;3.60;;;18.50;99.90;;;;;;5032389;28;20214;-57
2022/05/15 10:34:00;;;;;;;12.43;4.03;;;18.50;99.90;;;;;;5032417;28;20169;-57
2022/05/15 10:36:45;;;;;;;16.05;4.43;;;18.10;99.90;;;;;;5032238;28;20166;-57
2022/05/15 10:39:40;;;;;;;12.23;3.40;;;18.10;99.90;;;;;;5032072;28;20272;-57
2022/05/15 10:42:23;;;;;;;10.63;3.28;;;18.10;99.90;;;;;;5032358;28;20254;-57
2022/05/15 10:44:57;;;;;;;8.50;3.70;;;18.00;99.90;;;;;;5032128;28;20255;-57
2022/05/15 10:47:30;;;;;;;14.65;4.38;;;17.90;99.90;;;;;;5031834;28;20225;-57
2022/05/15 10:50:12;;;;;;;14.32;4.10;;;17.90;99.90;;;;;;5032057;28;20177;-57
2022/05/15 10:52:42;;;;;;;11.30;4.18;;;18.10;99.90;;;;;;5032278;28;20170;-57
2022/05/15 10:58:47;;;;;;;10.10;5.00;;;17.80;99.90;;;;;;5032089;28;20296;-56
2022/05/15 11:01:12;;;;;;;18.58;5.10;;;17.50;99.90;;;;;;5031707;28;20197;-57
2022/05/15 11:03:59;;;;;;;11.95;4.70;;;17.50;99.90;;;;;;5031702;28;20671;-57
2022/05/15 11:06:50;;;;;;;9.43;4.20;;;17.50;99.90;;;;;;5031859;28;20212;-57
2022/05/15 11:09:47;;;;;;;17.48;4.70;;;17.50;99.90;;;;;;5030437;28;20667;-57
2022/05/15 11:12:45;;;;;;;13.63;4.80;;;17.70;99.90;;;;;;5031602;28;20240;-57
2022/05/15 11:15:11;;;;;;;12.63;4.75;;;17.90;99.90;;;;;;5023933;28;20193;-57
2022/05/15 11:18:00;;;;;;;13.80;4.80;;;17.80;99.90;;;;;;5031546;28;20240;-57
2022/05/15 11:20:32;;;;;;;9.60;4.45;;;18.00;99.90;;;;;;5031483;28;20174;-57
2022/05/15 11:23:06;;;;;;;15.00;4.97;;;18.00;99.90;;;;;;5030597;28;20193;-57
2022/05/15 11:25:39;;;;;;;15.48;5.38;;;18.50;99.90;;;;;;5031475;28;20205;-57
2022/05/15 11:28:28;;;;;;;11.60;4.65;;;18.80;99.90;;;;;;5031231;28;20185;-57
2022/05/15 11:31:11;;;;;;;10.75;4.75;;;19.00;99.90;;;;;;5031113;28;20182;-57
2022/05/15 11:33:48;;;;;;;10.07;4.60;;;19.00;99.90;;;;;;5031192;28;20178;-57
2022/05/15 11:36:29;;;;;;;12.48;4.93;;;18.60;99.90;;;;;;5031077;28;20182;-57
2022/05/15 11:38:55;;;;;;;16.60;4.85;;;18.70;99.90;;;;;;5031100;28;20251;-57
2022/05/15 11:41:36;;;;;;;11.98;5.13;;;19.00;99.90;;;;;;5031070;28;20253;-57
2022/05/15 11:44:24;;;;;;;16.70;5.82;;;18.70;99.90;;;;;;5030873;28;20745;-57
2022/05/15 11:46:57;;;;;;;11.15;4.55;;;18.90;99.90;;;;;;5030674;28;20216;-59
2022/05/15 11:49:35;;;;;;;15.40;4.97;;;18.80;99.90;;;;;;5030834;28;20273;-58
2022/05/15 11:52:04;;;;;;;9.15;4.53;;;18.90;99.90;;;;;;5030787;28;20178;-57
2022/05/15 11:54:31;;;;;;;11.48;4.82;;;18.50;99.90;;;;;;5031072;28;20228;-57
2022/05/15 11:56:58;;;;;;;15.10;4.90;;;18.40;99.90;;;;;;5031073;28;20247;-57
2022/05/15 11:59:35;;;;;;;9.68;4.78;;;18.40;99.90;;;;;;5030989;28;20173;-57
2022/05/15 12:02:12;;;;;;;9.82;4.55;;;18.30;99.90;;;;;;5030972;28;20169;-57
2022/05/15 12:04:38;;;;;;;9.02;3.95;;;18.30;99.90;;;;;;5030749;28;20628;-57
2022/05/15 12:07:03;;;;;;;12.07;4.13;;;18.40;99.90;;;;;;5031029;28;20256;-57
2022/05/15 12:09:41;;;;;;;11.85;4.10;;;18.10;99.90;;;;;;5030714;28;20562;-57
2022/05/15 12:12:29;;;;;;;15.40;5.20;;;18.10;99.90;;;;;;5030724;28;20185;-57
2022/05/15 12:15:13;;;;;;;14.23;4.47;;;18.10;99.90;;;;;;5030590;28;20261;-57
2022/05/15 12:17:52;;;;;;;12.20;4.82;;;18.20;99.90;;;;;;5030591;28;20170;-57
2022/05/15 12:20:22;;;;;;;11.27;4.15;;;18.30;99.90;;;;;;5030818;28;20201;-58
2022/05/15 12:22:53;;;;;;;10.18;3.67;;;18.30;99.90;;;;;;5030594;28;20284;-57
2022/05/15 12:25:25;;;;;;;9.52;3.15;;;18.10;99.90;;;;;;5028484;28;20280;-56
2022/05/15 12:30:52;;;;;;;8.95;3.47;;;17.40;99.90;;;;;;5030737;28;20684;-57
2022/05/15 12:33:28;;;;;;;5.95;2.85;;;17.40;99.90;;;;;;5030552;28;20170;-57
2022/05/15 12:35:55;;;;;;;6.47;3.17;;;17.30;99.90;;;;;;5033803;28;20264;-57
2022/05/15 12:38:23;;;;;;;11.82;3.67;;;17.10;99.90;;;;;;5034396;28;20679;-57
2022/05/15 12:40:59;;;;;;;13.45;3.40;;;17.10;99.90;;;;;;5034555;28;20182;-57
2022/05/15 12:43:32;;;;;;;9.52;3.35;;;16.90;99.90;;;;;;5033950;28;20288;-57
2022/05/15 12:46:00;;;;;;;9.00;4.10;;;16.70;99.90;;;;;;5034184;28;20229;-56
2022/05/15 12:48:28;;;;;;;12.93;4.10;;;16.90;99.90;;;;;;5034143;28;20181;-57
2022/05/15 12:51:01;;;;;;;8.32;4.22;;;17.00;99.90;;;;;;5034259;28;20166;-57
2022/05/15 12:53:35;;;;;;;10.45;4.97;;;17.10;99.90;;;;;;5034132;28;20675;-57
2022/05/15 12:56:27;;;;;;;11.15;4.70;;;17.10;99.90;;;;;;5034330;28;20169;-57
2022/05/15 12:59:08;;;;;;;14.75;5.20;;;17.00;99.90;;;;;;5031017;28;20189;-57
2022/05/15 13:01:34;;;;;;;11.45;4.95;;;17.40;99.90;;;;;;5033969;28;20173;-57
2022/05/15 13:04:03;;;;;;;11.98;4.55;;;17.60;99.90;;;;;;5034097;28;20216;-57
2022/05/15 13:06:33;;;;;;;13.15;5.15;;;17.80;99.90;;;;;;5034110;28;20173;-57
2022/05/15 13:09:03;;;;;;;14.73;4.68;;;17.90;99.90;;;;;;5033930;28;20212;-57
2022/05/15 13:11:51;;;;;;;13.00;4.95;;;18.00;99.90;;;;;;5033895;28;20582;-57
2022/05/15 13:14:29;;;;;;;14.98;4.80;;;18.10;99.90;;;;;;5033880;28;20868;-57
2022/05/15 13:16:56;;;;;;;11.38;4.72;;;18.10;99.90;;;;;;5032626;28;20231;-57